Time;durP1;ratioP1;P1;durP2;ratioP2;P2;SDS_P1;SDS_P2;PMS_P1;PMS_P2;Temp;Humidity;BMP_temperature;BMP_pressure;BME280_temperature;BME280_humidity;BME280_pressure;Samples;Min_cycle;Max_cycle;Signal;HPM_P1;HPM_P2
2022/03/29 06:49:25;;;;;;;5.13;3.42;;;;;;;19.91;37.49;100046.09;10303918;27;44252;-67
2022/03/29 06:54:18;;;;;;;6.90;3.35;;;;;;;20.08;37.05;100043.41;10265456;27;65674;-66
2022/03/29 06:59:10;;;;;;;6.07;3.85;;;;;;;20.15;36.75;100039.03;10257153;27;66683;-70
2022/03/29 07:04:03;;;;;;;10.40;3.65;;;;;;;20.24;36.63;100035.50;10277537;27;65587;-71
2022/03/29 07:14:07;;;;;;;5.07;3.20;;;;;;;20.43;37.09;100025.06;10255799;27;67009;-71
2022/03/29 07:18:59;;;;;;;6.63;4.07;;;;;;;20.51;36.91;100027.84;10245778;27;65603;-71
2022/03/29 07:23:51;;;;;;;4.82;3.50;;;;;;;20.54;36.79;100026.38;10245536;27;66213;-72
2022/03/29 07:28:45;;;;;;;3.97;3.25;;;;;;;20.56;36.79;100024.09;10241084;27;64993;-72
2022/03/29 07:33:37;;;;;;;6.50;3.45;;;;;;;20.58;36.91;100030.09;10257528;27;66277;-71
2022/03/29 07:38:29;;;;;;;4.57;3.08;;;;;;;20.63;36.84;100034.63;10279291;27;65772;-71
2022/03/29 07:43:21;;;;;;;4.85;3.75;;;;;;;20.65;36.82;100022.19;10261550;27;65493;-71
2022/03/29 07:48:15;;;;;;;5.38;3.47;;;;;;;20.66;36.82;100026.56;10272562;27;66218;-72
2022/03/29 07:53:07;;;;;;;4.03;3.20;;;;;;;20.70;36.71;100026.69;10260992;27;66475;-71
2022/03/29 07:57:59;;;;;;;5.68;3.55;;;;;;;20.70;36.50;100032.22;10251099;27;65530;-70
2022/03/29 08:02:51;;;;;;;3.83;3.17;;;;;;;20.72;36.57;100038.22;10243183;27;65303;-71
2022/03/29 08:07:45;;;;;;;4.60;3.05;;;;;;;20.80;36.73;100032.72;10232891;27;65638;-77
2022/03/29 08:12:37;;;;;;;4.60;3.05;;;;;;;20.88;37.52;100040.19;10245874;27;66370;-78
2022/03/29 08:17:29;;;;;;;4.32;3.20;;;;;;;20.87;37.08;100032.22;10232210;27;66425;-70
2022/03/29 08:22:21;;;;;;;7.18;3.00;;;;;;;20.82;36.97;100021.38;10232263;27;66301;-68
2022/03/29 08:27:15;;;;;;;4.72;3.05;;;;;;;20.77;37.21;100027.03;10249699;27;66200;-70
2022/03/29 08:32:08;;;;;;;5.68;3.15;;;;;;;20.87;37.19;100027.53;10240379;27;66502;-79
2022/03/29 08:37:00;;;;;;;6.50;3.38;;;;;;;21.00;36.73;100017.47;10243706;27;64640;-71
2022/03/29 08:41:55;;;;;;;3.97;3.08;;;;;;;21.02;36.94;100014.38;10231672;27;66416;-69
2022/03/29 08:46:49;;;;;;;3.42;2.60;;;;;;;21.06;37.02;100015.34;10247386;27;66399;-74
2022/03/29 08:51:42;;;;;;;4.57;3.10;;;;;;;21.04;36.74;100012.13;10242744;27;65593;-73
2022/03/29 08:56:34;;;;;;;3.08;2.80;;;;;;;21.04;36.68;100004.66;10240711;27;64436;-67
2022/03/29 09:01:27;;;;;;;7.78;3.30;;;;;;;20.96;36.65;99994.47;10241163;27;68140;-66
2022/03/29 09:06:20;;;;;;;6.30;3.55;;;;;;;20.97;36.56;99990.53;10250186;27;64631;-72
2022/03/29 09:11:13;;;;;;;6.18;4.50;;;;;;;21.02;36.49;99992.34;10236010;27;66341;-73
2022/03/29 09:16:07;;;;;;;8.48;5.88;;;;;;;21.06;36.24;99994.09;10246856;27;66488;-72
2022/03/29 09:21:11;;;;;;;7.95;5.53;;;;;;;21.08;36.06;99997.34;10227121;27;66456;-73
2022/03/29 09:26:04;;;;;;;7.70;5.45;;;;;;;21.06;36.26;99991.34;10217562;27;66508;-72
2022/03/29 09:30:57;;;;;;;8.32;5.95;;;;;;;21.06;36.15;99996.84;10234172;27;66728;-67
2022/03/29 09:35:53;;;;;;;17.85;7.35;;;;;;;21.02;35.93;100001.41;10217548;27;66512;-64
2022/03/29 09:40:46;;;;;;;10.13;7.32;;;;;;;21.00;36.19;99998.16;10229611;27;65544;-63
2022/03/29 09:46:17;;;;;;;10.15;6.65;;;;;;;20.90;35.86;99991.03;10215073;27;66344;-65
2022/03/29 09:51:17;;;;;;;9.52;6.22;;;;;;;20.95;35.71;99975.50;10213232;27;66490;-64
2022/03/29 09:56:11;;;;;;;6.80;4.68;;;;;;;21.00;35.85;99972.56;10215290;27;66333;-65
2022/03/29 10:01:05;;;;;;;13.35;4.47;;;;;;;20.95;35.94;99962.53;10248694;27;66601;-64
2022/03/29 10:06:01;;;;;;;9.90;3.70;;;;;;;20.96;35.99;99964.16;10236992;27;66305;-64
2022/03/29 10:11:10;;;;;;;6.20;3.30;;;;;;;20.92;36.07;99952.13;10232309;27;66934;-65
2022/03/29 10:16:02;;;;;;;9.18;2.83;;;;;;;20.90;36.09;99943.38;10209933;27;66306;-64
2022/03/29 10:20:56;;;;;;;5.63;3.42;;;;;;;20.91;36.18;99922.97;10223348;27;65598;-65
2022/03/29 10:25:48;;;;;;;5.22;2.60;;;;;;;20.96;36.07;99919.22;10229433;27;66067;-63
2022/03/29 10:30:42;;;;;;;5.60;3.05;;;;;;;20.97;36.17;99905.09;10234907;27;64184;-63
2022/03/29 10:35:33;;;;;;;6.93;3.08;;;;;;;21.02;36.19;99906.91;10220076;27;66292;-64
2022/03/29 10:40:37;;;;;;;7.28;2.90;;;;;;;21.06;36.39;99897.63;10224981;27;65522;-67
2022/03/29 10:45:30;;;;;;;4.03;2.65;;;;;;;21.06;36.39;99886.59;10232374;27;66381;-63
2022/03/29 10:50:22;;;;;;;8.38;3.20;;;;;;;21.12;36.55;99887.25;10219656;27;66347;-67
2022/03/29 10:55:22;;;;;;;10.10;3.15;;;;;;;21.05;36.58;99879.47;10234329;27;66422;-64
2022/03/29 11:00:22;;;;;;;8.50;2.83;;;;;;;21.12;36.55;99877.00;10243696;27;66325;-67
2022/03/29 11:05:14;;;;;;;6.10;3.50;;;;;;;21.13;36.83;99873.13;10212881;27;66407;-65
2022/03/29 11:10:09;;;;;;;6.68;3.75;;;;;;;21.14;37.06;99860.16;10212320;27;65736;-65
2022/03/29 11:15:01;;;;;;;5.82;3.55;;;;;;;21.18;36.97;99861.16;10246774;27;65041;-66
2022/03/29 11:19:56;;;;;;;7.18;3.28;;;;;;;21.23;37.00;99856.25;10230452;27;66431;-68
2022/03/29 11:24:49;;;;;;;6.97;4.38;;;;;;;21.24;37.18;99848.78;10245228;27;65719;-66
2022/03/29 11:29:41;;;;;;;7.93;3.70;;;;;;;21.31;36.86;99840.81;10234142;27;66375;-64
2022/03/29 11:34:40;;;;;;;13.90;9.15;;;;;;;20.88;35.32;99822.47;10219757;27;66422;-65
2022/03/29 11:39:34;;;;;;;10.57;9.07;;;;;;;20.56;35.39;99816.72;10230648;27;65638;-64
2022/03/29 11:44:26;;;;;;;10.80;8.75;;;;;;;20.53;35.40;99809.91;10249301;27;65707;-63
2022/03/29 11:49:18;;;;;;;11.70;10.07;;;;;;;20.37;34.99;99806.91;10251786;27;66327;-65
2022/03/29 11:54:10;;;;;;;9.57;6.05;;;;;;;20.66;35.58;99800.69;10236280;27;65554;-65
2022/03/29 11:59:04;;;;;;;11.48;8.50;;;;;;;20.59;34.35;99788.53;10237508;27;66318;-65
2022/03/29 12:03:56;;;;;;;10.00;7.93;;;;;;;20.82;34.63;99776.94;10231044;27;66336;-73
2022/03/29 12:08:53;;;;;;;16.48;7.80;;;;;;;20.77;34.83;99770.81;10243799;27;66332;-72
2022/03/29 12:14:00;;;;;;;13.35;8.65;;;;;;;20.82;34.65;99757.66;10248362;27;65610;-64
2022/03/29 12:18:53;;;;;;;11.35;8.20;;;;;;;20.80;34.59;99743.41;10231161;27;65581;-67
2022/03/29 12:23:45;;;;;;;15.57;6.88;;;;;;;20.78;34.56;99734.66;10243383;27;65540;-65
2022/03/29 12:28:38;;;;;;;10.15;7.22;;;;;;;20.70;34.57;99735.50;10227460;27;66314;-64
2022/03/29 12:33:36;;;;;;;9.40;8.40;;;;;;;20.48;34.41;99721.97;10240521;27;66480;-64
2022/03/29 12:38:39;;;;;;;11.13;7.93;;;;;;;20.49;34.59;99724.41;10250356;27;66434;-66
2022/03/29 12:43:33;;;;;;;10.13;8.02;;;;;;;20.34;34.11;99713.94;10211139;27;66130;-66
2022/03/29 12:48:48;;;;;;;8.80;6.80;;;;;;;20.36;34.61;99706.16;10229138;27;66626;-65
2022/03/29 12:53:42;;;;;;;11.02;7.05;;;;;;;20.29;34.39;99694.00;10236042;27;64404;-64
2022/03/29 12:58:35;;;;;;;10.82;6.45;;;;;;;20.14;33.95;99700.84;10251100;27;64058;-65
2022/03/29 13:03:27;;;;;;;9.13;7.75;;;;;;;20.03;34.02;99689.38;10252639;27;65636;-64
2022/03/29 13:08:19;;;;;;;8.20;6.45;;;;;;;20.03;34.06;99675.59;10253396;27;65516;-64
2022/03/29 13:13:14;;;;;;;7.90;5.97;;;;;;;20.04;33.57;99668.16;10243350;27;66146;-63
2022/03/29 13:18:17;;;;;;;5.97;4.20;;;;;;;20.32;34.11;99663.84;10249245;27;66427;-64
2022/03/29 13:23:10;;;;;;;5.45;2.78;;;;;;;20.41;34.28;99664.69;10249519;27;66301;-64
2022/03/29 13:28:02;;;;;;;6.10;2.22;;;;;;;20.48;34.44;99659.47;10246603;27;66384;-63
2022/03/29 13:32:55;;;;;;;4.45;2.75;;;;;;;20.47;34.67;99641.31;10250763;27;66224;-64
2022/03/29 13:37:47;;;;;;;2.88;2.42;;;;;;;20.45;34.78;99629.81;10238829;27;65600;-65
2022/03/29 13:42:39;;;;;;;3.08;2.40;;;;;;;20.53;34.90;99625.41;10228575;27;65697;-64
2022/03/29 13:47:31;;;;;;;6.43;2.45;;;;;;;20.51;35.06;99611.19;10249190;27;66441;-63
2022/03/29 13:52:24;;;;;;;3.50;2.30;;;;;;;20.55;35.10;99609.38;10250179;27;66281;-63
2022/03/29 13:57:16;;;;;;;3.20;2.35;;;;;;;20.59;35.13;99598.50;10227873;27;66423;-63
2022/03/29 14:02:09;;;;;;;3.35;2.40;;;;;;;20.57;35.20;99589.75;10220407;27;65588;-64
2022/03/29 14:07:01;;;;;;;6.40;4.38;;;;;;;20.44;34.42;99586.13;10238210;27;66296;-63
2022/03/29 14:11:57;;;;;;;6.20;4.25;;;;;;;20.38;34.02;99584.66;10248036;27;65725;-63
2022/03/29 14:16:50;;;;;;;5.88;3.90;;;;;;;20.44;33.92;99578.66;10239501;27;66398;-64
2022/03/29 14:21:42;;;;;;;6.85;3.28;;;;;;;20.48;34.00;99567.78;10233268;27;65646;-63
2022/03/29 14:26:34;;;;;;;4.80;2.17;;;;;;;20.49;34.32;99566.66;10242484;27;66319;-64
2022/03/29 14:31:27;;;;;;;3.38;2.30;;;;;;;20.48;34.24;99552.06;10248029;27;65477;-64
2022/03/29 14:36:19;;;;;;;2.90;2.00;;;;;;;20.51;34.31;99547.84;10247403;27;66485;-63
2022/03/29 14:41:11;;;;;;;4.20;2.28;;;;;;;20.51;34.57;99543.16;10242419;27;66451;-63
2022/03/29 14:46:03;;;;;;;3.58;2.00;;;;;;;20.52;34.42;99544.78;10245221;27;66250;-65
2022/03/29 14:50:57;;;;;;;7.20;5.22;;;;;;;20.38;34.50;99535.91;10231880;27;65727;-71
2022/03/29 14:55:49;;;;;;;8.07;5.07;;;;;;;20.38;34.17;99540.63;10208615;27;65033;-65
2022/03/29 15:00:41;;;;;;;10.90;6.32;;;;;;;20.32;34.62;99533.66;10246062;27;66524;-65
2022/03/29 15:05:33;;;;;;;8.60;6.70;;;;;;;20.23;34.65;99530.97;10231169;27;66489;-64
2022/03/29 15:10:27;;;;;;;9.57;6.95;;;;;;;20.18;34.89;99525.66;10247314;27;65605;-65
2022/03/29 15:15:19;;;;;;;11.80;6.70;;;;;;;20.11;34.69;99517.09;10241248;27;66262;-68
2022/03/29 15:20:11;;;;;;;7.70;5.97;;;;;;;20.12;34.30;99526.97;10215509;27;65379;-69
2022/03/29 15:25:04;;;;;;;7.43;5.22;;;;;;;20.15;34.24;99512.56;10236153;27;66449;-68
2022/03/29 15:29:57;;;;;;;6.15;4.80;;;;;;;20.21;34.18;99515.94;10230847;27;66288;-64
2022/03/29 15:34:49;;;;;;;7.80;5.10;;;;;;;20.17;34.08;99508.31;10215053;27;66278;-67
2022/03/29 15:39:42;;;;;;;9.10;5.25;;;;;;;20.17;33.97;99507.53;10227239;27;65544;-65
2022/03/29 15:44:37;;;;;;;5.97;4.50;;;;;;;20.15;34.24;99504.31;10231410;27;65474;-65
2022/03/29 15:49:31;;;;;;;7.38;3.92;;;;;;;20.17;34.38;99502.81;10247859;27;66501;-66
2022/03/29 15:54:23;;;;;;;10.85;3.85;;;;;;;20.14;34.57;99498.00;10249718;27;66362;-66
2022/03/29 15:59:15;;;;;;;3.95;3.30;;;;;;;20.09;34.46;99492.66;10252966;27;65310;-68
2022/03/29 16:04:09;;;;;;;5.85;2.70;;;;;;;20.16;34.32;99495.69;10214954;27;66084;-68
2022/03/29 16:09:03;;;;;;;5.70;2.80;;;;;;;20.13;34.18;99498.31;10218036;27;66200;-66
2022/03/29 16:13:55;;;;;;;5.32;2.83;;;;;;;20.11;33.95;99487.66;10229714;27;66361;-68
2022/03/29 16:18:47;;;;;;;8.68;2.60;;;;;;;20.09;33.99;99472.59;10483189;22;65499;-69
2022/03/29 19:59:09;;;;;;;4.57;1.70;;;;;;;20.63;35.79;99409.41;11950076;22;44225;-61
2022/03/29 20:04:01;;;;;;;4.00;1.50;;;;;;;20.62;35.77;99407.78;10048217;28;66328;-61
2022/03/29 20:08:53;;;;;;;2.03;1.70;;;;;;;20.60;35.68;99399.84;10062888;28;65554;-61
2022/03/29 20:13:46;;;;;;;4.35;1.73;;;;;;;20.59;35.65;99397.47;10048263;28;66475;-61
2022/03/29 20:18:40;;;;;;;3.53;2.00;;;;;;;20.60;35.57;99394.34;10043950;28;66507;-60
2022/03/29 20:23:33;;;;;;;4.85;2.00;;;;;;;20.59;35.64;99398.28;10048269;28;66329;-61
2022/03/29 20:28:26;;;;;;;3.65;2.28;;;;;;;20.60;35.69;99388.06;10048400;28;65633;-61
2022/03/29 20:33:18;;;;;;;2.97;2.50;;;;;;;20.59;35.62;99389.22;10046759;28;66470;-62
2022/03/29 20:38:13;;;;;;;2.42;2.22;;;;;;;20.58;35.59;99385.66;10046982;28;65564;-61
2022/03/29 20:43:05;;;;;;;6.55;3.08;;;;;;;20.62;35.59;99381.06;10043095;28;64703;-67
2022/03/29 20:47:57;;;;;;;4.00;2.58;;;;;;;20.67;35.55;99380.88;10046381;28;66139;-62
2022/03/29 20:52:49;;;;;;;3.00;2.10;;;;;;;20.75;35.52;99379.19;10053618;28;65373;-70
2022/03/29 20:57:42;;;;;;;3.83;1.77;;;;;;;20.83;35.39;99370.00;10055716;28;66316;-69
2022/03/29 22:40:13;;;;;;;2.75;2.25;;;;;;;21.13;34.54;99338.38;11845831;22;44285;-60
2022/03/29 22:45:06;;;;;;;3.22;1.90;;;;;;;21.08;34.53;99337.78;10022517;28;66315;-60
2022/03/29 22:49:58;;;;;;;2.20;2.00;;;;;;;21.12;34.47;99335.97;10015305;28;65557;-60
2022/03/29 22:54:50;;;;;;;4.53;1.95;;;;;;;21.14;34.39;99336.41;10032795;28;66413;-60
2022/03/29 22:59:44;;;;;;;2.20;1.80;;;;;;;21.14;34.41;99342.72;10038647;28;65512;-60
2022/03/29 23:04:36;;;;;;;3.45;1.88;;;;;;;21.16;34.48;99334.97;10005342;28;65200;-64
2022/03/29 23:09:27;;;;;;;2.50;1.52;;;;;;;21.11;34.50;99326.91;10025501;28;66440;-67
2022/03/29 23:14:20;;;;;;;2.17;1.90;;;;;;;21.15;34.41;99327.00;10031995;28;65704;-66
2022/03/29 23:19:13;;;;;;;2.40;1.83;;;;;;;21.12;34.43;99324.94;10014292;28;65715;-66
2022/03/29 23:24:06;;;;;;;7.35;2.42;;;;;;;21.13;34.43;99323.78;10023160;28;66343;-64
2022/03/29 23:28:58;;;;;;;2.53;2.08;;;;;;;21.13;34.49;99324.59;10020185;28;66393;-65
2022/03/29 23:33:50;;;;;;;3.67;2.40;;;;;;;21.00;34.56;99317.44;10025355;28;63902;-67
2022/03/29 23:38:44;;;;;;;5.25;2.30;;;;;;;;;;10041799;28;66332;-64
